Time;durP1;ratioP1;P1;durP2;ratioP2;P2;SDS_P1;SDS_P2;PMS_P1;PMS_P2;Temp;Humidity;BMP_temperature;BMP_pressure;BME280_temperature;BME280_humidity;BME280_pressure;Samples;Min_cycle;Max_cycle;Signal;HPM_P1;HPM_P2
2021/06/13 00:01:19;;;;;;;;;;;17.30;99.90;;;;;;4886879;29;20083;-71
2021/06/13 00:04:07;;;;;;;;;;;17.30;99.90;;;;;;4895397;29;19928;-69
2021/06/13 00:10:11;;;;;;;;;;;17.20;99.90;;;;;;4894679;29;19938;-69
2021/06/13 00:12:59;;;;;;;;;;;17.20;99.90;;;;;;4899117;29;19927;-71
2021/06/13 00:15:49;;;;;;;;;;;17.20;99.90;;;;;;4891463;29;19928;-71
2021/06/13 00:18:37;;;;;;;;;;;17.20;99.90;;;;;;4892320;29;19928;-71
2021/06/13 00:21:25;;;;;;;;;;;17.10;99.90;;;;;;4893709;29;19950;-69
2021/06/13 00:24:14;;;;;;;;;;;17.00;99.90;;;;;;4890853;29;20391;-70
2021/06/13 00:27:04;;;;;;;;;;;16.90;99.90;;;;;;4892939;29;19928;-70
2021/06/13 00:29:52;;;;;;;;;;;16.90;99.90;;;;;;4893201;29;19971;-69
2021/06/13 00:32:41;;;;;;;;;;;16.80;99.90;;;;;;4892471;29;19932;-71
2021/06/13 00:35:29;;;;;;;;;;;16.80;99.90;;;;;;4895377;29;19935;-69
2021/06/13 00:41:30;;;;;;;;;;;16.70;99.90;;;;;;4897520;29;20284;-70
2021/06/13 00:44:20;;;;;;;;;;;16.60;99.90;;;;;;4886820;29;20049;-69
2021/06/13 00:50:24;;;;;;;;;;;16.50;99.90;;;;;;4889335;29;19931;-71
2021/06/13 00:53:12;;;;;;;;;;;16.50;99.90;;;;;;4890647;29;19928;-72
2021/06/13 00:56:08;;;;;;;;;;;16.40;99.90;;;;;;4896507;29;19927;-70
2021/06/13 00:58:58;;;;;;;;;;;16.40;99.90;;;;;;4888481;29;20321;-70
2021/06/13 01:01:48;;;;;;;;;;;16.40;99.90;;;;;;4886356;29;20071;-69
2021/06/13 01:04:38;;;;;;;;;;;16.30;99.90;;;;;;4894006;29;19927;-71
2021/06/13 01:07:30;;;;;;;;;;;16.30;99.90;;;;;;4883513;29;20336;-71
2021/06/13 01:10:25;;;;;;;;;;;16.20;99.90;;;;;;4892943;29;19931;-70
2021/06/13 01:13:16;;;;;;;;;;;16.10;99.90;;;;;;4892412;29;19931;-70
2021/06/13 01:16:08;;;;;;;;;;;16.20;99.90;;;;;;4882087;29;20304;-71
2021/06/13 01:19:02;;;;;;;;;;;16.10;99.90;;;;;;4886960;29;20386;-71
2021/06/13 01:22:11;;;;;;;;;;;16.00;99.90;;;;;;4884693;29;19935;-69
2021/06/13 01:25:58;;;;;;;;;;;15.90;99.90;;;;;;4894743;29;19928;-70
2021/06/13 01:28:58;;;;;;;;;;;15.90;99.90;;;;;;4892195;29;19939;-69
2021/06/13 01:31:51;;;;;;;;;;;15.90;99.90;;;;;;4875567;29;20023;-69
2021/06/13 01:34:47;;;;;;;;;;;15.90;99.90;;;;;;4890847;29;19935;-70
2021/06/13 01:37:44;;;;;;;;;;;15.90;99.90;;;;;;4887828;29;19932;-70
2021/06/13 01:40:34;;;;;;;;;;;15.80;99.90;;;;;;4885476;29;19971;-71
2021/06/13 01:43:23;;;;;;;;;;;15.80;99.90;;;;;;4890477;29;20407;-70
2021/06/13 01:46:18;;;;;;;;;;;15.80;99.90;;;;;;4887866;29;19935;-70
2021/06/13 01:49:08;;;;;;;;;;;15.80;99.90;;;;;;4889198;29;20003;-69
2021/06/13 01:51:57;;;;;;;;;;;15.70;99.90;;;;;;4884850;29;19987;-69
2021/06/13 01:54:46;;;;;;;;;;;15.60;99.90;;;;;;4879703;29;19984;-73
2021/06/13 01:57:35;;;;;;;;;;;15.60;99.90;;;;;;4884988;29;19932;-70
2021/06/13 02:00:47;;;;;;;;;;;15.50;99.90;;;;;;4880805;29;20019;-71
2021/06/13 02:03:43;;;;;;;;;;;15.60;99.90;;;;;;4875385;29;19932;-70
2021/06/13 02:06:51;;;;;;;;;;;15.50;99.90;;;;;;4881163;29;19939;-71
2021/06/13 02:09:48;;;;;;;;;;;15.40;99.90;;;;;;4877761;29;19932;-71
2021/06/13 02:12:44;;;;;;;;;;;15.30;99.90;;;;;;4887517;29;19966;-69
2021/06/13 02:15:34;;;;;;;;;;;15.10;99.90;;;;;;4879666;29;20346;-72
2021/06/13 02:18:24;;;;;;;;;;;15.00;99.90;;;;;;4871515;29;19935;-70
2021/06/13 02:21:18;;;;;;;;;;;14.90;99.90;;;;;;4887039;29;19980;-70
2021/06/13 02:24:06;;;;;;;;;;;14.80;99.90;;;;;;4886753;29;19943;-70
2021/06/13 02:26:55;;;;;;;;;;;14.70;99.90;;;;;;4877289;29;20290;-70
2021/06/13 02:29:45;;;;;;;;;;;14.70;99.90;;;;;;4878792;29;19935;-72
2021/06/13 02:32:38;;;;;;;;;;;14.60;99.90;;;;;;4875992;29;19943;-70
2021/06/13 02:35:28;;;;;;;;;;;14.50;99.90;;;;;;4870929;29;19935;-70
2021/06/13 02:38:19;;;;;;;;;;;14.40;99.90;;;;;;4887579;29;19939;-70
2021/06/13 02:41:35;;;;;;;;;;;14.30;99.90;;;;;;4889760;29;19928;-71
2021/06/13 02:44:24;;;;;;;;;;;14.20;99.90;;;;;;4885250;29;20160;-71
2021/06/13 02:47:15;;;;;;;;;;;14.20;99.90;;;;;;4880355;29;19935;-70
2021/06/13 02:50:04;;;;;;;;;;;14.20;99.90;;;;;;4873427;29;19968;-71
2021/06/13 02:56:18;;;;;;;;;;;14.10;99.90;;;;;;4895521;29;19927;-70
2021/06/13 02:59:12;;;;;;;;;;;14.10;99.90;;;;;;4894515;29;20023;-70
2021/06/13 03:02:02;;;;;;;;;;;14.10;99.90;;;;;;4884188;29;20347;-73
2021/06/13 03:04:54;;;;;;;;;;;14.30;99.90;;;;;;4897232;29;19994;-72
2021/06/13 03:07:44;;;;;;;;;;;14.30;99.90;;;;;;4889648;29;20438;-71
2021/06/13 03:10:35;;;;;;;;;;;14.40;99.90;;;;;;4887365;29;20272;-70
2021/06/13 03:13:26;;;;;;;;;;;14.40;99.90;;;;;;4898755;29;19935;-73
2021/06/13 03:16:16;;;;;;;;;;;14.40;99.90;;;;;;4888738;29;20024;-70
2021/06/13 03:19:05;;;;;;;;;;;14.40;99.90;;;;;;4890941;29;19936;-71
2021/06/13 03:21:54;;;;;;;;;;;14.40;99.90;;;;;;4892247;29;19966;-70
2021/06/13 03:24:44;;;;;;;;;;;14.30;99.90;;;;;;4894469;29;19960;-70
2021/06/13 03:27:34;;;;;;;;;;;14.20;99.90;;;;;;4895656;29;20422;-71
2021/06/13 03:30:26;;;;;;;;;;;14.20;99.90;;;;;;4898301;29;19932;-70
2021/06/13 03:33:21;;;;;;;;;;;14.10;99.90;;;;;;4901918;29;19928;-70
2021/06/13 03:36:11;;;;;;;;;;;14.10;99.90;;;;;;4891335;29;20038;-71
2021/06/13 03:39:01;;;;;;;;;;;14.20;99.90;;;;;;4898846;29;19933;-71
2021/06/13 03:41:51;;;;;;;;;;;14.30;99.90;;;;;;4902032;29;19928;-70
2021/06/13 03:44:41;;;;;;;;;;;14.30;99.90;;;;;;4894234;29;19927;-70
2021/06/13 03:47:33;;;;;;;;;;;14.30;99.90;;;;;;4898951;29;19996;-71
2021/06/13 03:50:22;;;;;;;;;;;14.30;99.90;;;;;;4897668;29;19935;-71
2021/06/13 03:53:17;;;;;;;;;;;14.30;99.90;;;;;;4898082;29;19935;-71
2021/06/13 03:56:06;;;;;;;;;;;14.20;99.90;;;;;;4898146;29;19949;-71
2021/06/13 03:58:55;;;;;;;;;;;14.10;99.90;;;;;;4892776;29;20026;-70
2021/06/13 04:01:45;;;;;;;;;;;14.10;99.90;;;;;;4890195;29;19934;-70
2021/06/13 04:04:38;;;;;;;;;;;14.10;99.90;;;;;;4896117;29;19935;-70
2021/06/13 04:07:27;;;;;;;;;;;14.20;99.90;;;;;;4895955;29;20024;-70
2021/06/13 04:10:16;;;;;;;;;;;14.20;99.90;;;;;;4894361;29;20052;-70
2021/06/13 04:13:05;;;;;;;;;;;14.40;99.90;;;;;;4892042;29;19946;-70
2021/06/13 04:15:54;;;;;;;;;;;14.50;99.90;;;;;;4887294;29;19927;-71
2021/06/13 04:18:43;;;;;;;;;;;14.50;99.90;;;;;;4894438;29;20380;-71
2021/06/13 04:21:33;;;;;;;;;;;14.60;99.90;;;;;;4893946;29;19928;-70
2021/06/13 04:24:23;;;;;;;;;;;14.60;99.90;;;;;;4893698;29;20443;-71
2021/06/13 04:27:12;;;;;;;;;;;14.70;99.90;;;;;;4895703;29;19931;-70
2021/06/13 04:30:25;;;;;;;;;;;14.80;99.90;;;;;;4893396;29;19928;-71
2021/06/13 04:33:15;;;;;;;;;;;14.80;99.90;;;;;;4897550;29;19935;-71
2021/06/13 04:36:04;;;;;;;;;;;14.90;99.90;;;;;;4891489;29;19931;-70
2021/06/13 04:38:54;;;;;;;;;;;14.90;99.90;;;;;;4887402;29;20373;-70
2021/06/13 04:41:42;;;;;;;;;;;14.90;99.90;;;;;;4888026;29;19932;-70
2021/06/13 04:44:31;;;;;;;;;;;15.10;99.90;;;;;;4884748;29;19928;-70
2021/06/13 04:47:20;;;;;;;;;;;15.20;99.90;;;;;;4891880;29;19928;-70
2021/06/13 04:50:10;;;;;;;;;;;15.30;99.90;;;;;;4891592;29;20026;-71
2021/06/13 04:53:00;;;;;;;;;;;15.30;99.90;;;;;;4890240;29;19966;-70
2021/06/13 04:55:52;;;;;;;;;;;15.30;99.90;;;;;;4890957;29;20363;-70
2021/06/13 04:58:42;;;;;;;;;;;15.40;99.90;;;;;;4879899;29;22358;-70
2021/06/13 05:01:31;;;;;;;;;;;15.40;99.90;;;;;;4886517;29;19934;-70
2021/06/13 05:04:19;;;;;;;;;;;15.40;99.90;;;;;;4898557;29;19970;-73
2021/06/13 05:07:08;;;;;;;;;;;15.50;99.90;;;;;;4890886;29;20488;-70
2021/06/13 05:09:57;;;;;;;;;;;15.50;99.90;;;;;;4899985;29;20371;-71
2021/06/13 05:12:48;;;;;;;;;;;15.40;99.90;;;;;;4891127;29;19935;-71
2021/06/13 05:15:37;;;;;;;;;;;15.50;99.90;;;;;;4887148;29;19934;-71
2021/06/13 05:18:26;;;;;;;;;;;15.70;99.90;;;;;;4889394;29;19928;-73
2021/06/13 05:21:14;;;;;;;;;;;15.90;99.90;;;;;;4887496;29;19951;-71
2021/06/13 05:24:04;;;;;;;;;;;16.20;99.90;;;;;;4892129;29;19928;-71
2021/06/13 05:26:52;;;;;;;;;;;16.20;99.90;;;;;;4892790;29;20018;-71
2021/06/13 05:29:43;;;;;;;;;;;16.40;99.90;;;;;;4890227;29;19935;-70
2021/06/13 05:32:31;;;;;;;;;;;16.40;99.90;;;;;;4894631;29;19927;-71
2021/06/13 05:35:21;;;;;;;;;;;16.50;99.90;;;;;;4900012;29;20401;-70
2021/06/13 05:38:10;;;;;;;;;;;16.50;99.90;;;;;;4895032;29;19935;-71
2021/06/13 05:40:59;;;;;;;;;;;16.20;99.90;;;;;;4897668;29;19958;-69
2021/06/13 05:44:12;;;;;;;;;;;16.00;99.90;;;;;;4878280;29;20339;-71
2021/06/13 05:47:03;;;;;;;;;;;16.10;99.90;;;;;;4876906;29;19984;-71
2021/06/13 05:49:52;;;;;;;;;;;16.40;99.90;;;;;;4894932;29;19938;-69
2021/06/13 05:52:40;;;;;;;;;;;16.60;99.90;;;;;;4896350;29;19982;-70
2021/06/13 05:55:29;;;;;;;;;;;17.10;99.90;;;;;;4890721;29;19927;-70
2021/06/13 05:58:18;;;;;;;;;;;17.10;99.90;;;;;;4891307;29;19927;-69
2021/06/13 06:01:07;;;;;;;;;;;17.00;99.90;;;;;;4887320;29;20357;-70
2021/06/13 06:03:57;;;;;;;;;;;16.90;99.90;;;;;;4900695;29;20344;-71
2021/06/13 06:06:45;;;;;;;;;;;16.60;99.90;;;;;;4901454;29;20383;-70
2021/06/13 06:09:34;;;;;;;;;;;16.40;99.90;;;;;;4897980;29;20019;-69
2021/06/13 06:12:23;;;;;;;;;;;16.30;99.90;;;;;;4897365;29;19939;-70
2021/06/13 06:15:14;;;;;;;;;;;16.90;99.90;;;;;;4891811;29;19931;-71
2021/06/13 06:18:03;;;;;;;;;;;17.50;99.90;;;;;;4890948;29;19932;-71
2021/06/13 06:20:53;;;;;;;;;;;18.00;99.90;;;;;;4900349;29;19938;-71
2021/06/13 06:23:42;;;;;;;;;;;18.10;99.10;;;;;;4892170;29;19932;-71
2021/06/13 06:26:31;;;;;;;;;;;17.50;99.90;;;;;;4888243;29;19928;-70
2021/06/13 06:29:20;;;;;;;;;;;18.00;99.90;;;;;;4902206;29;20367;-70
2021/06/13 06:32:08;;;;;;;;;;;17.60;99.90;;;;;;4892442;29;19977;-70
2021/06/13 06:34:57;;;;;;;;;;;17.70;99.90;;;;;;4903064;29;20022;-71
2021/06/13 06:37:47;;;;;;;;;;;17.90;99.70;;;;;;4902580;29;20486;-72
2021/06/13 06:40:36;;;;;;;;;;;18.40;98.80;;;;;;4899086;29;19935;-73
2021/06/13 06:43:25;;;;;;;;;;;18.50;98.50;;;;;;4899770;29;20054;-71
2021/06/13 06:46:14;;;;;;;;;;;19.00;97.60;;;;;;4875792;29;20026;-71
2021/06/13 06:49:03;;;;;;;;;;;19.50;96.90;;;;;;4893734;29;19935;-73
2021/06/13 06:55:09;;;;;;;;;;;19.90;95.60;;;;;;4906732;29;19932;-64
2021/06/13 06:57:58;;;;;;;;;;;20.10;95.00;;;;;;4910727;29;19927;-64
2021/06/13 07:00:47;;;;;;;;;;;20.40;92.90;;;;;;4919012;29;19931;-65
2021/06/13 07:03:36;;;;;;;;;;;21.50;91.60;;;;;;4914904;29;19927;-64
2021/06/13 07:06:25;;;;;;;;;;;21.90;87.90;;;;;;4916257;29;19931;-64
2021/06/13 07:09:13;;;;;;;;;;;22.10;87.00;;;;;;4905154;29;20029;-65
2021/06/13 07:12:06;;;;;;;;;;;23.20;83.00;;;;;;4898989;29;20017;-65
2021/06/13 07:14:55;;;;;;;;;;;22.80;83.70;;;;;;4913488;29;19927;-64
2021/06/13 07:17:44;;;;;;;;;;;21.20;88.00;;;;;;4907518;29;20367;-65
2021/06/13 07:20:32;;;;;;;;;;;22.00;87.40;;;;;;4909467;29;20081;-65
2021/06/13 07:23:21;;;;;;;;;;;24.10;78.90;;;;;;4909694;29;19933;-65
2021/06/13 07:26:09;;;;;;;;;;;26.20;70.80;;;;;;4910430;29;19974;-65
2021/06/13 07:28:59;;;;;;;;;;;26.80;63.10;;;;;;4912834;29;20391;-66
2021/06/13 07:31:47;;;;;;;;;;;28.50;59.80;;;;;;4900216;29;20253;-64
2021/06/13 07:34:36;;;;;;;;;;;29.10;54.90;;;;;;4905330;29;20302;-65
2021/06/13 07:37:24;;;;;;;;;;;30.40;51.40;;;;;;4912965;29;20011;-70
2021/06/13 07:40:14;;;;;;;;;;;29.30;51.80;;;;;;4905602;29;20026;-65
2021/06/13 07:43:03;;;;;;;;;;;28.70;51.90;;;;;;4935852;23;19932;-71
2021/06/13 07:45:53;;;;;;;;;;;30.30;49.40;;;;;;4948541;28;19954;-75
2021/06/13 07:48:42;;;;;;;;;;;31.80;45.30;;;;;;4970133;28;20012;-72
2021/06/13 07:51:31;;;;;;;;;;;31.20;45.00;;;;;;4968437;28;19930;-73
2021/06/13 07:54:19;;;;;;;;;;;34.50;42.10;;;;;;4953088;28;19926;-70
2021/06/13 07:57:09;;;;;;;;;;;31.60;42.90;;;;;;4984681;23;21195;-67
2021/06/13 07:59:58;;;;;;;;;;;29.30;46.90;;;;;;4965745;28;19926;-67
2021/06/13 08:02:49;;;;;;;;;;;29.10;48.30;;;;;;4966415;28;19941;-65
2021/06/13 08:05:38;;;;;;;;;;;33.00;41.20;;;;;;4965101;28;19927;-66
2021/06/13 08:08:27;;;;;;;;;;;34.70;37.20;;;;;;4962700;28;19933;-69
2021/06/13 08:11:15;;;;;;;;;;;34.60;36.70;;;;;;4967641;28;20329;-66
2021/06/13 08:14:04;;;;;;;;;;;35.10;35.20;;;;;;4961832;28;20325;-65
2021/06/13 08:16:53;;;;;;;;;;;35.50;34.10;;;;;;4958214;28;19941;-65
2021/06/13 08:19:43;;;;;;;;;;;33.10;35.80;;;;;;4968507;28;20286;-66
2021/06/13 08:22:47;;;;;;;;;;;32.50;37.10;;;;;;4969808;28;20372;-69
2021/06/13 08:25:37;;;;;;;;;;;34.30;35.20;;;;;;4969641;28;20384;-66
2021/06/13 08:28:26;;;;;;;;;;;33.30;35.00;;;;;;4968767;28;19981;-66
2021/06/13 08:31:14;;;;;;;;;;;31.00;39.90;;;;;;4958508;28;19934;-66
2021/06/13 08:34:03;;;;;;;;;;;28.90;41.80;;;;;;4973505;28;20425;-67
2021/06/13 08:36:53;;;;;;;;;;;29.30;43.20;;;;;;4957889;28;19982;-67
2021/06/13 08:39:41;;;;;;;;;;;31.70;41.10;;;;;;4970794;28;19930;-67
2021/06/13 08:45:44;;;;;;;;;;;32.50;38.00;;;;;;4958912;28;19973;-66
2021/06/13 08:48:33;;;;;;;;;;;31.80;38.80;;;;;;4956569;28;19926;-67
2021/06/13 08:51:22;;;;;;;;;;;34.70;36.00;;;;;;4966956;28;20512;-67
2021/06/13 08:54:12;;;;;;;;;;;31.60;36.10;;;;;;4961236;28;19934;-66
2021/06/13 08:57:00;;;;;;;;;;;31.20;38.50;;;;;;4955273;28;20551;-69
2021/06/13 08:59:56;;;;;;;;;;;30.60;37.70;;;;;;4963759;28;19927;-67
2021/06/13 09:02:45;;;;;;;;;;;33.20;36.60;;;;;;4960413;28;20010;-66
2021/06/13 09:05:33;;;;;;;;;;;32.00;36.80;;;;;;4967747;28;19934;-66
2021/06/13 09:08:22;;;;;;;;;;;32.30;37.00;;;;;;4967969;28;20933;-66
2021/06/13 09:11:26;;;;;;;;;;;31.90;36.50;;;;;;4955195;28;19926;-66
2021/06/13 09:14:16;;;;;;;;;;;29.00;40.20;;;;;;4959106;28;19927;-67
2021/06/13 09:17:11;;;;;;;;;;;30.40;40.30;;;;;;4957685;28;19962;-67
2021/06/13 09:20:04;;;;;;;;;;;33.00;38.00;;;;;;4966846;28;20366;-66
2021/06/13 09:23:05;;;;;;;;;;;32.00;38.00;;;;;;4962100;28;20275;-67
2021/06/13 09:25:58;;;;;;;;;;;33.70;36.70;;;;;;4967675;28;19937;-67
2021/06/13 09:28:50;;;;;;;;;;;34.50;34.50;;;;;;4962354;28;19933;-66
2021/06/13 09:31:38;;;;;;;;;;;34.90;34.10;;;;;;4963216;28;19926;-69
2021/06/13 09:34:27;;;;;;;;;;;34.80;33.00;;;;;;4963790;28;20029;-66
2021/06/13 09:37:16;;;;;;;;;;;33.90;34.10;;;;;;4964972;28;19935;-66
2021/06/13 09:40:09;;;;;;;;;;;29.70;35.60;;;;;;4965591;28;20429;-66
2021/06/13 09:42:58;;;;;;;;;;;29.40;39.80;;;;;;4961610;28;19926;-66
2021/06/13 09:45:52;;;;;;;;;;;29.40;42.40;;;;;;4961153;28;19933;-67
2021/06/13 09:48:43;;;;;;;;;;;27.40;46.00;;;;;;4970333;28;19945;-67
2021/06/13 09:51:34;;;;;;;;;;;25.70;49.40;;;;;;4972875;28;19936;-66
2021/06/13 09:54:24;;;;;;;;;;;24.80;51.60;;;;;;4970120;28;20016;-67
2021/06/13 09:57:13;;;;;;;;;;;24.60;51.20;;;;;;4968045;28;20448;-64
2021/06/13 10:00:16;;;;;;;;;;;24.00;52.00;;;;;;4967532;28;20398;-64
2021/06/13 10:03:19;;;;;;;;;;;23.40;52.20;;;;;;4966623;28;19931;-66
2021/06/13 10:06:09;;;;;;;;;;;22.80;55.00;;;;;;4957478;28;19926;-65
2021/06/13 10:08:58;;;;;;;;;;;22.90;56.10;;;;;;4961672;28;19938;-66
2021/06/13 10:11:48;;;;;;;;;;;22.90;55.30;;;;;;4957235;28;19930;-66
2021/06/13 10:14:37;;;;;;;;;;;22.40;55.70;;;;;;4965828;28;19930;-67
2021/06/13 10:17:31;;;;;;;;;;;22.50;55.30;;;;;;4958187;28;19931;-67
2021/06/13 10:20:25;;;;;;;;;;;22.20;56.30;;;;;;4964490;28;19926;-71
2021/06/13 10:23:14;;;;;;;;;;;22.80;56.30;;;;;;4975512;28;20002;-66
2021/06/13 10:26:03;;;;;;;;;;;25.20;52.40;;;;;;4953527;28;19927;-66
2021/06/13 10:28:52;;;;;;;;;;;25.60;51.70;;;;;;4965148;28;19931;-65
2021/06/13 10:31:40;;;;;;;;;;;24.40;52.90;;;;;;4967279;28;20350;-65
2021/06/13 10:34:29;;;;;;;;;;;23.90;55.20;;;;;;4976060;28;20430;-66
2021/06/13 10:37:19;;;;;;;;;;;23.20;55.60;;;;;;4971792;28;19933;-66
2021/06/13 10:40:08;;;;;;;;;;;22.50;56.50;;;;;;4974534;28;19927;-65
2021/06/13 10:42:57;;;;;;;;;;;22.70;57.80;;;;;;4969974;28;19937;-63
2021/06/13 10:45:46;;;;;;;;;;;22.40;57.90;;;;;;4964266;28;20032;-64
2021/06/13 10:48:39;;;;;;;;;;;22.40;57.70;;;;;;4959524;28;19932;-64
2021/06/13 10:51:42;;;;;;;;;;;21.90;57.00;;;;;;4965927;28;20393;-65
2021/06/13 10:54:35;;;;;;;;;;;21.90;57.20;;;;;;4970741;28;19930;-65
2021/06/13 10:57:34;;;;;;;;;;;22.10;59.20;;;;;;4966783;28;19949;-66
2021/06/13 11:00:28;;;;;;;;;;;21.90;59.00;;;;;;4965933;28;21123;-66
2021/06/13 11:03:17;;;;;;;;;;;22.10;59.50;;;;;;4976027;28;20068;-68
2021/06/13 11:06:26;;;;;;;;;;;22.80;58.10;;;;;;4972681;28;19930;-68
2021/06/13 11:09:17;;;;;;;;;;;23.10;56.70;;;;;;4975177;28;19949;-67
2021/06/13 11:12:27;;;;;;;;;;;22.30;59.30;;;;;;4963887;28;19926;-67
2021/06/13 11:15:18;;;;;;;;;;;22.00;58.50;;;;;;4961193;28;20055;-67
2021/06/13 11:18:08;;;;;;;;;;;22.00;58.70;;;;;;4959959;28;19926;-68
2021/06/13 11:21:04;;;;;;;;;;;22.30;58.60;;;;;;4972072;28;19937;-68
2021/06/13 11:23:57;;;;;;;;;;;22.30;59.70;;;;;;4958595;28;19930;-66
2021/06/13 11:26:46;;;;;;;;;;;22.30;58.00;;;;;;4967396;28;19934;-69
2021/06/13 11:29:49;;;;;;;;;;;22.10;58.00;;;;;;4963622;28;20020;-68
2021/06/13 11:32:53;;;;;;;;;;;21.80;58.50;;;;;;4978204;28;20014;-68
2021/06/13 11:35:45;;;;;;;;;;;21.90;60.80;;;;;;4970941;28;19926;-69
2021/06/13 11:38:33;;;;;;;;;;;21.80;60.90;;;;;;4978688;28;19926;-70
2021/06/13 11:41:47;;;;;;;;;;;21.80;59.00;;;;;;4979085;28;19926;-67
2021/06/13 11:44:41;;;;;;;;;;;22.00;58.90;;;;;;4964487;28;19926;-68
2021/06/13 11:47:32;;;;;;;;;;;22.10;59.80;;;;;;4967538;28;19932;-67
2021/06/13 11:50:33;;;;;;;;;;;22.50;59.00;;;;;;4967407;28;19949;-68
2021/06/13 11:53:46;;;;;;;;;;;22.60;57.80;;;;;;4973621;28;19926;-67
2021/06/13 11:56:43;;;;;;;;;;;22.00;56.10;;;;;;4948928;28;19949;-65
2021/06/13 11:59:36;;;;;;;;;;;21.90;57.20;;;;;;4973945;28;20033;-67
2021/06/13 12:02:26;;;;;;;;;;;21.80;58.30;;;;;;4969524;28;19926;-67
2021/06/13 12:05:15;;;;;;;;;;;21.60;59.60;;;;;;4967488;28;19926;-67
2021/06/13 12:08:05;;;;;;;;;;;21.50;59.80;;;;;;4970878;28;19934;-67
2021/06/13 12:10:54;;;;;;;;;;;21.30;62.80;;;;;;4964997;28;19936;-67
2021/06/13 12:13:43;;;;;;;;;;;21.50;64.20;;;;;;4952951;28;19927;-67
2021/06/13 12:16:32;;;;;;;;;;;21.60;61.80;;;;;;4967177;28;19926;-67
2021/06/13 12:19:29;;;;;;;;;;;21.80;61.90;;;;;;4958603;28;19930;-67
2021/06/13 12:22:22;;;;;;;;;;;22.00;61.80;;;;;;4980606;28;19933;-66
2021/06/13 12:28:28;;;;;;;;;;;22.20;60.30;;;;;;4956264;28;19926;-68
2021/06/13 12:31:24;;;;;;;;;;;22.20;59.30;;;;;;4972711;28;19930;-68
2021/06/13 12:34:18;;;;;;;;;;;22.10;61.60;;;;;;4978761;28;20036;-68
2021/06/13 12:37:06;;;;;;;;;;;22.20;62.50;;;;;;4969969;28;19926;-67
2021/06/13 12:39:56;;;;;;;;;;;22.30;62.20;;;;;;4962702;28;20032;-68
2021/06/13 12:42:47;;;;;;;;;;;22.00;59.40;;;;;;4968119;28;19927;-67
2021/06/13 12:45:36;;;;;;;;;;;21.90;60.40;;;;;;4960568;28;20419;-67
2021/06/13 12:48:26;;;;;;;;;;;21.90;59.50;;;;;;4971643;28;19926;-69
2021/06/13 12:51:24;;;;;;;;;;;21.90;62.50;;;;;;4959589;28;19933;-67
2021/06/13 12:54:16;;;;;;;;;;;22.10;61.90;;;;;;4965750;28;19949;-68
2021/06/13 12:57:05;;;;;;;;;;;22.30;61.20;;;;;;4971789;28;19927;-67
2021/06/13 12:59:57;;;;;;;;;;;22.50;61.00;;;;;;4962082;28;19941;-67
2021/06/13 13:02:46;;;;;;;;;;;22.40;60.70;;;;;;4972727;28;19930;-67
2021/06/13 13:05:35;;;;;;;;;;;22.20;59.60;;;;;;4967206;28;20077;-68
2021/06/13 13:08:24;;;;;;;;;;;22.20;61.30;;;;;;4969334;28;20390;-66
2021/06/13 13:11:41;;;;;;;;;;;22.30;60.70;;;;;;4957724;28;20009;-67
2021/06/13 13:14:29;;;;;;;;;;;22.30;60.00;;;;;;4973469;28;20374;-67
2021/06/13 13:17:27;;;;;;;;;;;22.30;60.90;;;;;;4965861;28;20024;-67
2021/06/13 13:20:30;;;;;;;;;;;22.20;60.50;;;;;;4969148;28;19941;-67
2021/06/13 13:23:19;;;;;;;;;;;22.20;60.60;;;;;;4967150;28;19930;-67
2021/06/13 13:26:08;;;;;;;;;;;22.40;58.10;;;;;;4962416;28;19927;-66
2021/06/13 13:28:57;;;;;;;;;;;22.50;57.80;;;;;;4961430;28;19937;-66
2021/06/13 13:31:46;;;;;;;;;;;22.60;56.10;;;;;;4963825;28;19934;-67
2021/06/13 13:34:36;;;;;;;;;;;22.80;58.00;;;;;;4965232;28;20378;-67
2021/06/13 13:37:25;;;;;;;;;;;23.10;58.00;;;;;;4967639;28;19970;-66
2021/06/13 13:40:14;;;;;;;;;;;23.20;58.50;;;;;;4962467;28;19966;-67
2021/06/13 13:43:06;;;;;;;;;;;23.20;57.40;;;;;;4966335;28;19978;-66
2021/06/13 13:45:55;;;;;;;;;;;23.10;57.80;;;;;;4961227;28;19937;-66
2021/06/13 13:48:52;;;;;;;;;;;23.20;56.20;;;;;;4957635;28;19926;-67
2021/06/13 13:51:46;;;;;;;;;;;23.20;55.40;;;;;;4964390;28;19933;-66
2021/06/13 13:54:36;;;;;;;;;;;23.40;56.30;;;;;;4964692;28;19926;-67
2021/06/13 13:57:41;;;;;;;;;;;23.50;56.60;;;;;;4943457;28;20305;-67
2021/06/13 14:00:29;;;;;;;;;;;23.50;55.10;;;;;;4935274;28;19961;-67
2021/06/13 14:03:18;;;;;;;;;;;23.80;54.50;;;;;;4957210;28;19933;-66
2021/06/13 14:06:32;;;;;;;;;;;24.20;53.40;;;;;;4963657;28;19931;-67
2021/06/13 14:09:23;;;;;;;;;;;24.00;53.30;;;;;;4959378;28;19933;-67
2021/06/13 14:12:11;;;;;;;;;;;23.60;54.30;;;;;;4961835;28;19926;-67
2021/06/13 14:15:01;;;;;;;;;;;23.80;54.20;;;;;;4964433;28;19930;-68
2021/06/13 14:17:49;;;;;;;;;;;24.10;54.80;;;;;;4956503;28;19996;-67
2021/06/13 14:20:38;;;;;;;;;;;24.20;54.00;;;;;;4957607;28;20331;-67
2021/06/13 14:23:28;;;;;;;;;;;24.50;52.60;;;;;;4954278;28;19933;-67
2021/06/13 14:26:18;;;;;;;;;;;24.60;53.20;;;;;;4963185;28;19926;-70
2021/06/13 14:29:07;;;;;;;;;;;24.60;52.70;;;;;;4978036;28;19998;-66
2021/06/13 14:31:56;;;;;;;;;;;24.00;53.80;;;;;;4955155;28;19937;-67
2021/06/13 14:34:44;;;;;;;;;;;23.70;53.30;;;;;;4968993;28;19998;-67
2021/06/13 14:37:34;;;;;;;;;;;23.60;54.10;;;;;;4949959;28;19927;-67
2021/06/13 14:40:23;;;;;;;;;;;23.40;54.10;;;;;;4950996;28;20398;-67
2021/06/13 14:43:15;;;;;;;;;;;23.50;55.20;;;;;;4961612;28;20013;-67
2021/06/13 14:46:04;;;;;;;;;;;23.50;55.20;;;;;;4959333;28;19926;-66
2021/06/13 14:48:53;;;;;;;;;;;23.50;55.30;;;;;;4956478;28;19934;-66
2021/06/13 14:51:42;;;;;;;;;;;23.40;55.80;;;;;;4950690;28;19927;-66
2021/06/13 14:54:31;;;;;;;;;;;23.40;57.20;;;;;;4960217;28;20309;-66
2021/06/13 14:57:20;;;;;;;;;;;23.40;56.00;;;;;;4953521;28;20272;-66
2021/06/13 15:00:12;;;;;;;;;;;23.40;55.70;;;;;;4950505;28;20302;-66
2021/06/13 15:03:01;;;;;;;;;;;23.30;55.10;;;;;;4968772;28;19946;-66
2021/06/13 15:05:50;;;;;;;;;;;23.30;55.90;;;;;;4968085;28;20094;-66
2021/06/13 15:08:39;;;;;;;;;;;23.40;55.90;;;;;;4951353;28;19926;-67
2021/06/13 15:11:30;;;;;;;;;;;23.50;55.70;;;;;;4965563;28;19926;-68
2021/06/13 15:14:18;;;;;;;;;;;23.30;56.00;;;;;;4958620;28;20343;-66
2021/06/13 15:17:08;;;;;;;;;;;23.40;55.30;;;;;;4960393;28;20073;-67
2021/06/13 15:19:57;;;;;;;;;;;23.20;55.10;;;;;;4961720;28;19926;-67
2021/06/13 15:22:46;;;;;;;;;;;23.30;55.10;;;;;;4960170;28;20449;-65
2021/06/13 15:25:38;;;;;;;;;;;23.40;55.00;;;;;;4967834;28;19933;-66
2021/06/13 15:28:27;;;;;;;;;;;23.40;55.20;;;;;;4952103;28;19930;-67
2021/06/13 15:31:16;;;;;;;;;;;23.40;54.50;;;;;;4953044;28;19926;-68
2021/06/13 15:34:06;;;;;;;;;;;23.50;55.00;;;;;;4961772;28;19933;-67
2021/06/13 15:36:59;;;;;;;;;;;23.60;54.20;;;;;;4962409;28;19934;-67
2021/06/13 15:39:49;;;;;;;;;;;23.40;54.30;;;;;;4959476;28;19932;-68
2021/06/13 15:42:38;;;;;;;;;;;23.40;53.40;;;;;;4967148;28;19926;-67
2021/06/13 15:45:27;;;;;;;;;;;23.30;53.80;;;;;;4954626;28;19926;-67
2021/06/13 15:48:18;;;;;;;;;;;23.00;54.90;;;;;;4954359;28;19934;-67
2021/06/13 15:51:10;;;;;;;;;;;23.00;55.60;;;;;;4961940;28;19926;-68
2021/06/13 15:53:59;;;;;;;;;;;23.00;56.70;;;;;;4955822;28;20018;-69
2021/06/13 15:56:50;;;;;;;;;;;23.00;56.30;;;;;;4959169;28;19977;-71
2021/06/13 15:59:43;;;;;;;;;;;23.20;55.30;;;;;;4958003;28;19938;-67
2021/06/13 16:02:57;;;;;;;;;;;23.20;55.50;;;;;;4967203;28;19926;-68
2021/06/13 16:05:47;;;;;;;;;;;23.20;55.90;;;;;;4961551;28;20021;-67
2021/06/13 16:08:38;;;;;;;;;;;23.10;55.50;;;;;;4966517;28;20401;-68
2021/06/13 16:11:28;;;;;;;;;;;23.10;55.80;;;;;;4956419;28;19927;-67
2021/06/13 16:14:17;;;;;;;;;;;23.10;55.60;;;;;;4955464;28;19926;-67
2021/06/13 16:17:06;;;;;;;;;;;23.00;55.50;;;;;;4956027;28;20433;-68
2021/06/13 16:19:54;;;;;;;;;;;23.00;55.90;;;;;;4955779;28;20006;-67
2021/06/13 16:22:43;;;;;;;;;;;23.00;55.70;;;;;;4960917;28;20024;-68
2021/06/13 16:25:38;;;;;;;;;;;22.50;55.80;;;;;;4961238;28;19930;-66
2021/06/13 16:28:27;;;;;;;;;;;22.50;57.00;;;;;;4960834;28;20368;-67
2021/06/13 16:31:16;;;;;;;;;;;22.70;56.40;;;;;;4953113;28;19927;-67
2021/06/13 16:34:07;;;;;;;;;;;22.80;56.40;;;;;;4972751;28;19926;-66
2021/06/13 16:36:58;;;;;;;;;;;22.70;56.80;;;;;;4972163;28;19933;-65
2021/06/13 16:39:46;;;;;;;;;;;22.60;56.70;;;;;;4972469;28;20283;-66
2021/06/13 16:42:36;;;;;;;;;;;22.50;57.30;;;;;;4977291;28;19930;-66
2021/06/13 16:45:27;;;;;;;;;;;22.70;57.40;;;;;;4964614;28;20164;-66
2021/06/13 16:48:16;;;;;;;;;;;22.70;56.80;;;;;;4974069;28;20247;-66
2021/06/13 16:51:05;;;;;;;;;;;22.70;56.50;;;;;;4972201;28;20064;-66
2021/06/13 16:53:54;;;;;;;;;;;22.70;56.90;;;;;;4973107;28;19927;-67
2021/06/13 16:56:42;;;;;;;;;;;22.60;56.40;;;;;;4973106;28;19933;-67
2021/06/13 16:59:34;;;;;;;;;;;22.30;56.40;;;;;;4974231;28;19937;-67